sensor_id;sensor_type;location;lat;lon;timestamp;P1;durP1;ratioP1;P2;durP2;ratioP2
43626;SDS011;29217;52.586;13.442;2023-12-07T00:01:29;31.42;;;12.18;;
43626;SDS011;29217;52.586;13.442;2023-12-07T00:03:55;28.48;;;12.13;;
43626;SDS011;29217;52.586;13.442;2023-12-07T00:06:21;26.73;;;11.65;;
43626;SDS011;29217;52.586;13.442;2023-12-07T00:08:47;31.98;;;12.88;;
43626;SDS011;29217;52.586;13.442;2023-12-07T00:11:13;27.95;;;12.02;;
43626;SDS011;29217;52.586;13.442;2023-12-07T00:13:39;29.95;;;11.63;;
43626;SDS011;29217;52.586;13.442;2023-12-07T00:16:05;29.38;;;12.93;;
43626;SDS011;29217;52.586;13.442;2023-12-07T00:18:31;33.15;;;13.38;;
43626;SDS011;29217;52.586;13.442;2023-12-07T00:20:57;32.70;;;13.70;;
43626;SDS011;29217;52.586;13.442;2023-12-07T00:23:23;29.35;;;12.27;;
43626;SDS011;29217;52.586;13.442;2023-12-07T00:25:49;30.00;;;13.25;;
43626;SDS011;29217;52.586;13.442;2023-12-07T00:28:15;29.23;;;12.77;;
43626;SDS011;29217;52.586;13.442;2023-12-07T00:30:41;28.98;;;12.73;;
43626;SDS011;29217;52.586;13.442;2023-12-07T00:33:07;28.15;;;12.13;;
43626;SDS011;29217;52.586;13.442;2023-12-07T00:35:34;31.20;;;12.32;;
43626;SDS011;29217;52.586;13.442;2023-12-07T00:38:00;29.00;;;10.52;;
43626;SDS011;29217;52.586;13.442;2023-12-07T00:40:26;34.08;;;12.85;;
43626;SDS011;29217;52.586;13.442;2023-12-07T00:42:52;30.35;;;11.98;;
43626;SDS011;29217;52.586;13.442;2023-12-07T00:45:18;30.35;;;13.40;;
43626;SDS011;29217;52.586;13.442;2023-12-07T00:47:44;28.40;;;11.77;;
43626;SDS011;29217;52.586;13.442;2023-12-07T00:50:13;29.35;;;12.35;;
43626;SDS011;29217;52.586;13.442;2023-12-07T00:52:40;27.25;;;11.55;;
43626;SDS011;29217;52.586;13.442;2023-12-07T00:55:06;31.00;;;11.50;;
43626;SDS011;29217;52.586;13.442;2023-12-07T00:57:32;29.02;;;11.68;;
43626;SDS011;29217;52.586;13.442;2023-12-07T00:59:58;25.98;;;11.80;;
43626;SDS011;29217;52.586;13.442;2023-12-07T01:02:24;26.92;;;11.73;;
43626;SDS011;29217;52.586;13.442;2023-12-07T01:04:50;27.77;;;11.68;;
43626;SDS011;29217;52.586;13.442;2023-12-07T01:07:16;25.35;;;11.73;;
43626;SDS011;29217;52.586;13.442;2023-12-07T01:09:42;22.60;;;10.45;;
43626;SDS011;29217;52.586;13.442;2023-12-07T01:12:08;29.23;;;12.70;;
43626;SDS011;29217;52.586;13.442;2023-12-07T01:14:34;27.85;;;11.52;;
43626;SDS011;29217;52.586;13.442;2023-12-07T01:17:00;23.60;;;9.90;;
43626;SDS011;29217;52.586;13.442;2023-12-07T01:19:27;25.30;;;10.30;;
43626;SDS011;29217;52.586;13.442;2023-12-07T01:21:53;26.63;;;11.40;;
43626;SDS011;29217;52.586;13.442;2023-12-07T01:24:19;28.75;;;11.25;;
43626;SDS011;29217;52.586;13.442;2023-12-07T01:26:45;27.95;;;10.98;;
43626;SDS011;29217;52.586;13.442;2023-12-07T01:29:11;24.48;;;11.05;;
43626;SDS011;29217;52.586;13.442;2023-12-07T01:31:38;30.95;;;12.10;;
43626;SDS011;29217;52.586;13.442;2023-12-07T01:34:04;25.92;;;11.27;;
43626;SDS011;29217;52.586;13.442;2023-12-07T01:36:30;23.30;;;10.38;;
43626;SDS011;29217;52.586;13.442;2023-12-07T01:38:56;24.80;;;10.52;;
43626;SDS011;29217;52.586;13.442;2023-12-07T01:41:22;28.63;;;12.43;;
43626;SDS011;29217;52.586;13.442;2023-12-07T01:43:48;30.35;;;12.20;;
43626;SDS011;29217;52.586;13.442;2023-12-07T01:46:15;32.13;;;11.48;;
43626;SDS011;29217;52.586;13.442;2023-12-07T01:48:41;31.63;;;12.52;;
43626;SDS011;29217;52.586;13.442;2023-12-07T01:51:07;34.78;;;13.38;;
43626;SDS011;29217;52.586;13.442;2023-12-07T01:53:34;30.48;;;11.57;;
43626;SDS011;29217;52.586;13.442;2023-12-07T01:56:00;26.17;;;11.50;;
43626;SDS011;29217;52.586;13.442;2023-12-07T01:58:27;33.42;;;12.63;;
43626;SDS011;29217;52.586;13.442;2023-12-07T02:00:53;28.25;;;12.45;;
43626;SDS011;29217;52.586;13.442;2023-12-07T02:03:19;26.85;;;11.48;;
43626;SDS011;29217;52.586;13.442;2023-12-07T02:05:46;27.20;;;11.00;;
43626;SDS011;29217;52.586;13.442;2023-12-07T02:08:13;25.10;;;10.50;;
43626;SDS011;29217;52.586;13.442;2023-12-07T02:10:39;27.80;;;12.38;;
43626;SDS011;29217;52.586;13.442;2023-12-07T02:13:05;28.60;;;11.27;;
43626;SDS011;29217;52.586;13.442;2023-12-07T02:15:32;29.58;;;12.25;;
43626;SDS011;29217;52.586;13.442;2023-12-07T02:20:31;27.77;;;11.48;;
43626;SDS011;29217;52.586;13.442;2023-12-07T02:23:00;26.65;;;10.85;;
43626;SDS011;29217;52.586;13.442;2023-12-07T02:25:37;28.55;;;12.27;;
43626;SDS011;29217;52.586;13.442;2023-12-07T02:28:06;28.10;;;11.98;;
43626;SDS011;29217;52.586;13.442;2023-12-07T02:30:32;30.45;;;11.65;;
43626;SDS011;29217;52.586;13.442;2023-12-07T02:32:58;29.40;;;12.43;;
43626;SDS011;29217;52.586;13.442;2023-12-07T02:35:24;30.15;;;11.80;;
43626;SDS011;29217;52.586;13.442;2023-12-07T02:37:51;27.83;;;11.98;;
43626;SDS011;29217;52.586;13.442;2023-12-07T02:40:18;35.92;;;13.88;;
43626;SDS011;29217;52.586;13.442;2023-12-07T02:42:45;31.75;;;13.13;;
43626;SDS011;29217;52.586;13.442;2023-12-07T02:45:12;29.58;;;12.25;;
43626;SDS011;29217;52.586;13.442;2023-12-07T02:47:38;30.30;;;12.10;;
43626;SDS011;29217;52.586;13.442;2023-12-07T02:50:05;31.77;;;13.07;;
43626;SDS011;29217;52.586;13.442;2023-12-07T02:52:31;37.55;;;13.13;;
43626;SDS011;29217;52.586;13.442;2023-12-07T02:54:58;28.10;;;12.02;;
43626;SDS011;29217;52.586;13.442;2023-12-07T02:57:23;28.60;;;12.13;;
43626;SDS011;29217;52.586;13.442;2023-12-07T02:59:49;28.80;;;11.25;;
43626;SDS011;29217;52.586;13.442;2023-12-07T03:02:15;30.08;;;11.20;;
43626;SDS011;29217;52.586;13.442;2023-12-07T03:04:41;30.77;;;12.20;;
43626;SDS011;29217;52.586;13.442;2023-12-07T03:07:07;26.38;;;11.50;;
43626;SDS011;29217;52.586;13.442;2023-12-07T03:09:33;30.05;;;12.27;;
43626;SDS011;29217;52.586;13.442;2023-12-07T03:11:59;25.88;;;12.35;;
43626;SDS011;29217;52.586;13.442;2023-12-07T03:14:25;26.48;;;12.30;;
43626;SDS011;29217;52.586;13.442;2023-12-07T03:16:51;27.35;;;11.50;;
43626;SDS011;29217;52.586;13.442;2023-12-07T03:19:17;30.40;;;12.95;;
43626;SDS011;29217;52.586;13.442;2023-12-07T03:21:43;31.55;;;12.00;;
43626;SDS011;29217;52.586;13.442;2023-12-07T03:24:09;25.25;;;11.95;;
43626;SDS011;29217;52.586;13.442;2023-12-07T03:26:36;28.75;;;11.43;;
43626;SDS011;29217;52.586;13.442;2023-12-07T03:29:02;32.10;;;12.32;;
43626;SDS011;29217;52.586;13.442;2023-12-07T03:31:28;23.05;;;10.98;;
43626;SDS011;29217;52.586;13.442;2023-12-07T03:33:54;29.08;;;12.68;;
43626;SDS011;29217;52.586;13.442;2023-12-07T03:36:21;29.77;;;11.18;;
43626;SDS011;29217;52.586;13.442;2023-12-07T03:38:47;29.20;;;12.43;;
43626;SDS011;29217;52.586;13.442;2023-12-07T03:41:13;26.85;;;11.43;;
43626;SDS011;29217;52.586;13.442;2023-12-07T03:43:39;31.98;;;13.18;;
43626;SDS011;29217;52.586;13.442;2023-12-07T03:46:06;30.27;;;12.23;;
43626;SDS011;29217;52.586;13.442;2023-12-07T03:48:32;34.22;;;12.65;;
43626;SDS011;29217;52.586;13.442;2023-12-07T03:50:58;35.95;;;12.38;;
43626;SDS011;29217;52.586;13.442;2023-12-07T03:53:24;37.47;;;13.82;;
43626;SDS011;29217;52.586;13.442;2023-12-07T03:55:50;35.72;;;12.70;;
43626;SDS011;29217;52.586;13.442;2023-12-07T03:58:16;39.42;;;13.25;;
43626;SDS011;29217;52.586;13.442;2023-12-07T04:00:42;35.33;;;12.63;;
43626;SDS011;29217;52.586;13.442;2023-12-07T04:03:08;35.45;;;12.32;;
43626;SDS011;29217;52.586;13.442;2023-12-07T04:05:34;39.40;;;13.40;;
43626;SDS011;29217;52.586;13.442;2023-12-07T04:08:00;34.50;;;12.13;;
43626;SDS011;29217;52.586;13.442;2023-12-07T04:10:26;32.95;;;13.13;;
43626;SDS011;29217;52.586;13.442;2023-12-07T04:12:52;34.28;;;12.65;;
43626;SDS011;29217;52.586;13.442;2023-12-07T04:15:18;31.00;;;11.73;;
43626;SDS011;29217;52.586;13.442;2023-12-07T04:17:45;30.02;;;11.80;;
43626;SDS011;29217;52.586;13.442;2023-12-07T04:20:11;45.47;;;15.18;;
43626;SDS011;29217;52.586;13.442;2023-12-07T04:22:38;37.85;;;13.38;;
43626;SDS011;29217;52.586;13.442;2023-12-07T04:25:04;42.53;;;13.98;;
43626;SDS011;29217;52.586;13.442;2023-12-07T04:27:31;40.83;;;13.93;;
43626;SDS011;29217;52.586;13.442;2023-12-07T04:29:57;36.50;;;13.48;;
43626;SDS011;29217;52.586;13.442;2023-12-07T04:32:23;38.85;;;12.25;;
43626;SDS011;29217;52.586;13.442;2023-12-07T04:34:49;36.55;;;12.70;;
43626;SDS011;29217;52.586;13.442;2023-12-07T04:37:15;34.05;;;12.30;;
43626;SDS011;29217;52.586;13.442;2023-12-07T04:39:41;31.88;;;12.48;;
43626;SDS011;29217;52.586;13.442;2023-12-07T04:42:07;32.90;;;12.98;;
43626;SDS011;29217;52.586;13.442;2023-12-07T04:44:33;31.40;;;11.88;;
43626;SDS011;29217;52.586;13.442;2023-12-07T04:46:59;38.13;;;12.25;;
43626;SDS011;29217;52.586;13.442;2023-12-07T04:49:25;31.25;;;12.38;;
43626;SDS011;29217;52.586;13.442;2023-12-07T04:51:51;31.70;;;12.55;;
43626;SDS011;29217;52.586;13.442;2023-12-07T04:54:17;36.55;;;11.18;;
43626;SDS011;29217;52.586;13.442;2023-12-07T04:56:44;32.67;;;11.80;;
43626;SDS011;29217;52.586;13.442;2023-12-07T04:59:10;33.83;;;11.73;;
43626;SDS011;29217;52.586;13.442;2023-12-07T05:01:36;32.05;;;12.23;;
43626;SDS011;29217;52.586;13.442;2023-12-07T05:04:03;32.22;;;11.60;;
43626;SDS011;29217;52.586;13.442;2023-12-07T05:06:29;40.40;;;13.90;;
43626;SDS011;29217;52.586;13.442;2023-12-07T05:08:55;37.00;;;12.23;;
43626;SDS011;29217;52.586;13.442;2023-12-07T05:11:21;31.98;;;11.82;;
43626;SDS011;29217;52.586;13.442;2023-12-07T05:13:47;31.98;;;12.23;;
43626;SDS011;29217;52.586;13.442;2023-12-07T05:16:13;37.22;;;12.32;;
43626;SDS011;29217;52.586;13.442;2023-12-07T05:18:39;33.80;;;11.57;;
43626;SDS011;29217;52.586;13.442;2023-12-07T05:21:05;28.30;;;11.10;;
43626;SDS011;29217;52.586;13.442;2023-12-07T05:23:31;30.38;;;12.73;;
43626;SDS011;29217;52.586;13.442;2023-12-07T05:25:57;33.47;;;12.60;;
43626;SDS011;29217;52.586;13.442;2023-12-07T05:28:23;36.50;;;11.10;;
43626;SDS011;29217;52.586;13.442;2023-12-07T05:30:50;31.08;;;11.20;;
43626;SDS011;29217;52.586;13.442;2023-12-07T05:33:17;33.17;;;11.43;;
43626;SDS011;29217;52.586;13.442;2023-12-07T05:35:44;34.47;;;12.68;;
43626;SDS011;29217;52.586;13.442;2023-12-07T05:38:10;30.08;;;11.55;;
43626;SDS011;29217;52.586;13.442;2023-12-07T05:40:36;31.20;;;11.07;;
43626;SDS011;29217;52.586;13.442;2023-12-07T05:43:02;28.30;;;10.77;;
43626;SDS011;29217;52.586;13.442;2023-12-07T05:45:28;30.30;;;11.02;;
43626;SDS011;29217;52.586;13.442;2023-12-07T05:47:55;36.72;;;11.20;;
43626;SDS011;29217;52.586;13.442;2023-12-07T05:50:21;34.03;;;11.65;;
43626;SDS011;29217;52.586;13.442;2023-12-07T05:52:47;29.60;;;11.13;;
43626;SDS011;29217;52.586;13.442;2023-12-07T05:55:13;27.17;;;10.35;;
43626;SDS011;29217;52.586;13.442;2023-12-07T05:57:39;29.75;;;11.45;;
43626;SDS011;29217;52.586;13.442;2023-12-07T06:00:05;29.95;;;11.30;;
43626;SDS011;29217;52.586;13.442;2023-12-07T06:02:35;29.63;;;11.27;;
43626;SDS011;29217;52.586;13.442;2023-12-07T06:05:04;28.13;;;9.82;;
43626;SDS011;29217;52.586;13.442;2023-12-07T06:07:30;29.92;;;9.98;;
43626;SDS011;29217;52.586;13.442;2023-12-07T06:09:56;36.05;;;11.00;;
43626;SDS011;29217;52.586;13.442;2023-12-07T06:12:22;33.72;;;10.95;;
43626;SDS011;29217;52.586;13.442;2023-12-07T06:14:48;26.35;;;10.38;;
43626;SDS011;29217;52.586;13.442;2023-12-07T06:17:15;27.88;;;10.27;;
43626;SDS011;29217;52.586;13.442;2023-12-07T06:19:41;30.83;;;11.32;;
43626;SDS011;29217;52.586;13.442;2023-12-07T06:22:08;28.20;;;10.60;;
43626;SDS011;29217;52.586;13.442;2023-12-07T06:24:34;26.25;;;10.05;;
43626;SDS011;29217;52.586;13.442;2023-12-07T06:27:01;34.15;;;10.90;;
43626;SDS011;29217;52.586;13.442;2023-12-07T06:29:27;30.25;;;10.95;;
43626;SDS011;29217;52.586;13.442;2023-12-07T06:31:54;29.60;;;10.63;;
43626;SDS011;29217;52.586;13.442;2023-12-07T06:34:20;23.75;;;9.98;;
43626;SDS011;29217;52.586;13.442;2023-12-07T06:36:46;33.17;;;12.40;;
43626;SDS011;29217;52.586;13.442;2023-12-07T06:39:12;37.50;;;12.85;;
43626;SDS011;29217;52.586;13.442;2023-12-07T06:41:39;41.03;;;12.13;;
43626;SDS011;29217;52.586;13.442;2023-12-07T06:44:06;36.97;;;11.35;;
43626;SDS011;29217;52.586;13.442;2023-12-07T06:46:33;26.83;;;10.63;;
43626;SDS011;29217;52.586;13.442;2023-12-07T06:48:59;28.38;;;10.35;;
43626;SDS011;29217;52.586;13.442;2023-12-07T06:51:25;35.92;;;11.88;;
43626;SDS011;29217;52.586;13.442;2023-12-07T06:53:51;24.35;;;9.57;;
43626;SDS011;29217;52.586;13.442;2023-12-07T06:56:18;29.02;;;10.70;;
43626;SDS011;29217;52.586;13.442;2023-12-07T06:58:44;33.83;;;11.43;;
43626;SDS011;29217;52.586;13.442;2023-12-07T07:01:10;28.13;;;10.45;;
43626;SDS011;29217;52.586;13.442;2023-12-07T07:03:36;25.08;;;11.20;;
43626;SDS011;29217;52.586;13.442;2023-12-07T07:06:01;28.90;;;11.48;;
43626;SDS011;29217;52.586;13.442;2023-12-07T07:08:28;29.50;;;10.88;;
43626;SDS011;29217;52.586;13.442;2023-12-07T07:10:53;26.05;;;10.75;;
43626;SDS011;29217;52.586;13.442;2023-12-07T07:13:19;27.10;;;10.27;;
43626;SDS011;29217;52.586;13.442;2023-12-07T07:15:46;26.83;;;10.02;;
43626;SDS011;29217;52.586;13.442;2023-12-07T07:18:13;36.00;;;10.80;;
43626;SDS011;29217;52.586;13.442;2023-12-07T07:20:39;33.35;;;10.95;;
43626;SDS011;29217;52.586;13.442;2023-12-07T07:23:05;28.42;;;9.80;;
43626;SDS011;29217;52.586;13.442;2023-12-07T07:25:33;30.45;;;9.68;;
43626;SDS011;29217;52.586;13.442;2023-12-07T07:27:59;30.85;;;9.98;;
43626;SDS011;29217;52.586;13.442;2023-12-07T07:30:25;25.63;;;9.98;;
43626;SDS011;29217;52.586;13.442;2023-12-07T07:32:51;24.08;;;10.18;;
43626;SDS011;29217;52.586;13.442;2023-12-07T07:35:17;28.45;;;10.68;;
43626;SDS011;29217;52.586;13.442;2023-12-07T07:37:43;28.50;;;10.00;;
43626;SDS011;29217;52.586;13.442;2023-12-07T07:40:09;25.85;;;9.98;;
43626;SDS011;29217;52.586;13.442;2023-12-07T07:42:39;28.60;;;11.13;;
43626;SDS011;29217;52.586;13.442;2023-12-07T07:45:06;30.83;;;10.05;;
43626;SDS011;29217;52.586;13.442;2023-12-07T07:47:32;26.50;;;10.85;;
43626;SDS011;29217;52.586;13.442;2023-12-07T07:49:58;30.75;;;10.68;;
43626;SDS011;29217;52.586;13.442;2023-12-07T07:52:30;29.92;;;10.52;;
43626;SDS011;29217;52.586;13.442;2023-12-07T07:54:56;33.00;;;10.40;;
43626;SDS011;29217;52.586;13.442;2023-12-07T07:57:21;29.17;;;10.80;;
43626;SDS011;29217;52.586;13.442;2023-12-07T07:59:47;27.45;;;11.23;;
43626;SDS011;29217;52.586;13.442;2023-12-07T08:02:13;37.50;;;10.98;;
43626;SDS011;29217;52.586;13.442;2023-12-07T08:04:39;27.50;;;9.93;;
43626;SDS011;29217;52.586;13.442;2023-12-07T08:07:05;30.63;;;10.85;;
43626;SDS011;29217;52.586;13.442;2023-12-07T08:09:32;28.65;;;10.40;;
43626;SDS011;29217;52.586;13.442;2023-12-07T08:11:58;29.20;;;10.43;;
43626;SDS011;29217;52.586;13.442;2023-12-07T08:14:24;30.35;;;11.10;;
43626;SDS011;29217;52.586;13.442;2023-12-07T08:16:50;28.20;;;9.80;;
43626;SDS011;29217;52.586;13.442;2023-12-07T08:19:16;33.38;;;11.55;;
43626;SDS011;29217;52.586;13.442;2023-12-07T08:21:42;30.73;;;11.85;;
43626;SDS011;29217;52.586;13.442;2023-12-07T08:24:08;32.13;;;11.20;;
43626;SDS011;29217;52.586;13.442;2023-12-07T08:26:34;31.38;;;10.18;;
43626;SDS011;29217;52.586;13.442;2023-12-07T08:29:00;36.75;;;11.00;;
43626;SDS011;29217;52.586;13.442;2023-12-07T08:31:26;28.08;;;10.48;;
43626;SDS011;29217;52.586;13.442;2023-12-07T08:33:52;27.02;;;10.07;;
43626;SDS011;29217;52.586;13.442;2023-12-07T08:36:18;29.52;;;10.40;;
43626;SDS011;29217;52.586;13.442;2023-12-07T08:38:44;33.00;;;11.93;;
43626;SDS011;29217;52.586;13.442;2023-12-07T08:41:10;30.23;;;11.60;;
43626;SDS011;29217;52.586;13.442;2023-12-07T08:43:36;32.72;;;11.50;;
43626;SDS011;29217;52.586;13.442;2023-12-07T08:46:02;29.98;;;11.20;;
43626;SDS011;29217;52.586;13.442;2023-12-07T08:48:29;33.95;;;11.18;;
43626;SDS011;29217;52.586;13.442;2023-12-07T08:50:56;37.33;;;11.48;;
43626;SDS011;29217;52.586;13.442;2023-12-07T08:53:22;31.42;;;11.35;;
43626;SDS011;29217;52.586;13.442;2023-12-07T08:55:48;31.45;;;11.00;;
43626;SDS011;29217;52.586;13.442;2023-12-07T08:58:14;29.52;;;9.93;;
43626;SDS011;29217;52.586;13.442;2023-12-07T09:00:40;34.22;;;11.02;;
43626;SDS011;29217;52.586;13.442;2023-12-07T09:03:06;36.33;;;12.25;;
43626;SDS011;29217;52.586;13.442;2023-12-07T09:05:32;32.00;;;11.48;;
43626;SDS011;29217;52.586;13.442;2023-12-07T09:07:58;31.40;;;11.63;;
43626;SDS011;29217;52.586;13.442;2023-12-07T09:10:24;32.42;;;12.80;;
43626;SDS011;29217;52.586;13.442;2023-12-07T09:12:50;34.67;;;13.18;;
43626;SDS011;29217;52.586;13.442;2023-12-07T09:15:16;39.33;;;13.70;;
43626;SDS011;29217;52.586;13.442;2023-12-07T09:17:42;33.35;;;11.88;;
43626;SDS011;29217;52.586;13.442;2023-12-07T09:20:08;30.65;;;11.98;;
43626;SDS011;29217;52.586;13.442;2023-12-07T09:22:40;36.72;;;11.07;;
43626;SDS011;29217;52.586;13.442;2023-12-07T09:25:06;36.97;;;13.35;;
43626;SDS011;29217;52.586;13.442;2023-12-07T09:27:33;37.63;;;14.07;;
43626;SDS011;29217;52.586;13.442;2023-12-07T09:30:02;33.33;;;11.55;;
43626;SDS011;29217;52.586;13.442;2023-12-07T09:32:28;33.20;;;12.23;;
43626;SDS011;29217;52.586;13.442;2023-12-07T09:34:54;37.47;;;12.77;;
43626;SDS011;29217;52.586;13.442;2023-12-07T09:37:20;34.50;;;12.52;;
43626;SDS011;29217;52.586;13.442;2023-12-07T09:39:46;44.72;;;13.80;;
43626;SDS011;29217;52.586;13.442;2023-12-07T09:42:12;38.85;;;13.45;;
43626;SDS011;29217;52.586;13.442;2023-12-07T09:44:38;32.90;;;12.98;;
43626;SDS011;29217;52.586;13.442;2023-12-07T09:47:04;38.58;;;13.38;;
43626;SDS011;29217;52.586;13.442;2023-12-07T09:49:30;56.63;;;13.63;;
43626;SDS011;29217;52.586;13.442;2023-12-07T09:51:56;35.38;;;13.20;;
43626;SDS011;29217;52.586;13.442;2023-12-07T09:54:24;41.45;;;12.85;;
43626;SDS011;29217;52.586;13.442;2023-12-07T09:56:50;36.20;;;12.20;;
43626;SDS011;29217;52.586;13.442;2023-12-07T09:59:18;34.70;;;12.63;;
43626;SDS011;29217;52.586;13.442;2023-12-07T10:01:44;38.00;;;12.57;;
43626;SDS011;29217;52.586;13.442;2023-12-07T10:04:22;35.05;;;11.88;;
43626;SDS011;29217;52.586;13.442;2023-12-07T10:06:51;27.50;;;10.93;;
43626;SDS011;29217;52.586;13.442;2023-12-07T10:09:17;32.97;;;12.45;;
43626;SDS011;29217;52.586;13.442;2023-12-07T10:11:47;25.20;;;10.13;;
43626;SDS011;29217;52.586;13.442;2023-12-07T10:14:13;28.42;;;9.38;;
43626;SDS011;29217;52.586;13.442;2023-12-07T10:16:52;26.20;;;9.75;;
43626;SDS011;29217;52.586;13.442;2023-12-07T10:19:18;26.23;;;9.35;;
43626;SDS011;29217;52.586;13.442;2023-12-07T10:21:50;25.63;;;8.90;;
43626;SDS011;29217;52.586;13.442;2023-12-07T10:24:16;24.63;;;9.77;;
43626;SDS011;29217;52.586;13.442;2023-12-07T10:26:43;22.40;;;9.30;;
43626;SDS011;29217;52.586;13.442;2023-12-07T10:29:09;25.30;;;9.02;;
43626;SDS011;29217;52.586;13.442;2023-12-07T10:31:38;25.52;;;8.75;;
43626;SDS011;29217;52.586;13.442;2023-12-07T10:34:04;24.95;;;9.40;;
43626;SDS011;29217;52.586;13.442;2023-12-07T10:36:31;25.02;;;9.25;;
43626;SDS011;29217;52.586;13.442;2023-12-07T10:38:57;27.95;;;9.35;;
43626;SDS011;29217;52.586;13.442;2023-12-07T10:41:24;21.25;;;9.30;;
43626;SDS011;29217;52.586;13.442;2023-12-07T10:43:54;25.17;;;8.38;;
43626;SDS011;29217;52.586;13.442;2023-12-07T10:46:22;24.50;;;9.05;;
43626;SDS011;29217;52.586;13.442;2023-12-07T10:48:48;21.30;;;7.72;;
43626;SDS011;29217;52.586;13.442;2023-12-07T10:51:17;28.33;;;10.05;;
43626;SDS011;29217;52.586;13.442;2023-12-07T10:53:46;22.92;;;8.50;;
43626;SDS011;29217;52.586;13.442;2023-12-07T10:56:16;22.33;;;8.80;;
43626;SDS011;29217;52.586;13.442;2023-12-07T10:58:42;22.08;;;9.18;;
43626;SDS011;29217;52.586;13.442;2023-12-07T11:01:09;24.63;;;9.68;;
43626;SDS011;29217;52.586;13.442;2023-12-07T11:03:39;26.98;;;10.05;;
43626;SDS011;29217;52.586;13.442;2023-12-07T11:06:06;32.17;;;10.20;;
43626;SDS011;29217;52.586;13.442;2023-12-07T11:08:40;23.85;;;10.02;;
43626;SDS011;29217;52.586;13.442;2023-12-07T11:11:10;24.42;;;9.70;;
43626;SDS011;29217;52.586;13.442;2023-12-07T11:13:37;29.33;;;9.15;;
43626;SDS011;29217;52.586;13.442;2023-12-07T11:16:04;31.45;;;10.80;;
43626;SDS011;29217;52.586;13.442;2023-12-07T11:18:30;27.45;;;10.07;;
43626;SDS011;29217;52.586;13.442;2023-12-07T11:20:56;29.65;;;9.52;;
43626;SDS011;29217;52.586;13.442;2023-12-07T11:23:23;24.08;;;10.35;;
43626;SDS011;29217;52.586;13.442;2023-12-07T11:25:50;22.63;;;9.02;;
43626;SDS011;29217;52.586;13.442;2023-12-07T11:28:17;26.55;;;10.02;;
43626;SDS011;29217;52.586;13.442;2023-12-07T11:30:46;26.00;;;9.88;;
43626;SDS011;29217;52.586;13.442;2023-12-07T11:33:13;32.35;;;9.95;;
43626;SDS011;29217;52.586;13.442;2023-12-07T11:38:24;30.27;;;10.80;;
43626;SDS011;29217;52.586;13.442;2023-12-07T11:40:50;28.45;;;10.63;;
43626;SDS011;29217;52.586;13.442;2023-12-07T11:43:17;30.00;;;11.68;;
43626;SDS011;29217;52.586;13.442;2023-12-07T11:45:47;26.02;;;9.98;;
43626;SDS011;29217;52.586;13.442;2023-12-07T11:48:18;23.55;;;9.90;;
43626;SDS011;29217;52.586;13.442;2023-12-07T11:53:21;25.85;;;9.15;;
43626;SDS011;29217;52.586;13.442;2023-12-07T11:55:48;27.15;;;10.52;;
43626;SDS011;29217;52.586;13.442;2023-12-07T11:58:14;25.67;;;8.77;;
43626;SDS011;29217;52.586;13.442;2023-12-07T12:00:40;29.33;;;9.77;;
43626;SDS011;29217;52.586;13.442;2023-12-07T12:03:06;30.17;;;11.13;;
43626;SDS011;29217;52.586;13.442;2023-12-07T12:05:32;29.70;;;10.60;;
43626;SDS011;29217;52.586;13.442;2023-12-07T12:07:57;27.65;;;10.38;;
43626;SDS011;29217;52.586;13.442;2023-12-07T12:10:24;27.02;;;10.30;;
43626;SDS011;29217;52.586;13.442;2023-12-07T12:12:53;30.38;;;9.85;;
43626;SDS011;29217;52.586;13.442;2023-12-07T12:15:19;25.48;;;10.10;;
43626;SDS011;29217;52.586;13.442;2023-12-07T12:17:45;25.85;;;9.95;;
43626;SDS011;29217;52.586;13.442;2023-12-07T12:20:11;24.92;;;9.93;;
43626;SDS011;29217;52.586;13.442;2023-12-07T12:22:42;30.60;;;10.95;;
43626;SDS011;29217;52.586;13.442;2023-12-07T12:25:08;29.83;;;10.35;;
43626;SDS011;29217;52.586;13.442;2023-12-07T12:27:35;27.27;;;10.15;;
43626;SDS011;29217;52.586;13.442;2023-12-07T12:30:02;33.60;;;9.93;;
43626;SDS011;29217;52.586;13.442;2023-12-07T12:32:33;26.10;;;9.02;;
43626;SDS011;29217;52.586;13.442;2023-12-07T12:34:59;20.85;;;10.10;;
43626;SDS011;29217;52.586;13.442;2023-12-07T12:37:25;29.70;;;10.30;;
43626;SDS011;29217;52.586;13.442;2023-12-07T12:39:51;30.08;;;10.95;;
43626;SDS011;29217;52.586;13.442;2023-12-07T12:42:17;35.20;;;10.48;;
43626;SDS011;29217;52.586;13.442;2023-12-07T12:44:43;25.25;;;9.38;;
43626;SDS011;29217;52.586;13.442;2023-12-07T12:47:09;26.83;;;10.18;;
43626;SDS011;29217;52.586;13.442;2023-12-07T12:49:36;27.63;;;10.27;;
43626;SDS011;29217;52.586;13.442;2023-12-07T12:52:02;28.40;;;10.52;;
43626;SDS011;29217;52.586;13.442;2023-12-07T12:54:32;30.80;;;11.80;;
43626;SDS011;29217;52.586;13.442;2023-12-07T12:56:58;32.97;;;11.88;;
43626;SDS011;29217;52.586;13.442;2023-12-07T12:59:24;30.13;;;10.98;;
43626;SDS011;29217;52.586;13.442;2023-12-07T13:01:50;34.92;;;12.73;;
43626;SDS011;29217;52.586;13.442;2023-12-07T13:04:16;30.13;;;10.95;;
43626;SDS011;29217;52.586;13.442;2023-12-07T13:06:42;30.67;;;11.48;;
43626;SDS011;29217;52.586;13.442;2023-12-07T13:09:08;37.83;;;12.82;;
43626;SDS011;29217;52.586;13.442;2023-12-07T13:11:34;33.92;;;12.23;;
43626;SDS011;29217;52.586;13.442;2023-12-07T13:14:00;29.02;;;11.52;;
43626;SDS011;29217;52.586;13.442;2023-12-07T13:16:31;35.17;;;12.23;;
43626;SDS011;29217;52.586;13.442;2023-12-07T13:18:57;34.58;;;12.45;;
43626;SDS011;29217;52.586;13.442;2023-12-07T13:21:23;31.63;;;12.60;;
43626;SDS011;29217;52.586;13.442;2023-12-07T13:23:50;33.85;;;12.55;;
43626;SDS011;29217;52.586;13.442;2023-12-07T13:26:16;37.22;;;12.80;;
43626;SDS011;29217;52.586;13.442;2023-12-07T13:28:42;40.35;;;14.15;;
43626;SDS011;29217;52.586;13.442;2023-12-07T13:31:08;36.83;;;12.68;;
43626;SDS011;29217;52.586;13.442;2023-12-07T13:33:34;36.05;;;13.10;;
43626;SDS011;29217;52.586;13.442;2023-12-07T13:36:00;35.55;;;11.95;;
43626;SDS011;29217;52.586;13.442;2023-12-07T13:38:27;37.85;;;12.68;;
43626;SDS011;29217;52.586;13.442;2023-12-07T13:40:55;37.28;;;11.95;;
43626;SDS011;29217;52.586;13.442;2023-12-07T13:43:21;30.27;;;12.52;;
43626;SDS011;29217;52.586;13.442;2023-12-07T13:45:49;44.05;;;12.73;;
43626;SDS011;29217;52.586;13.442;2023-12-07T13:48:15;44.40;;;14.43;;
43626;SDS011;29217;52.586;13.442;2023-12-07T13:50:42;34.95;;;13.20;;
43626;SDS011;29217;52.586;13.442;2023-12-07T13:53:08;38.88;;;13.75;;
43626;SDS011;29217;52.586;13.442;2023-12-07T13:55:35;38.13;;;14.07;;
43626;SDS011;29217;52.586;13.442;2023-12-07T13:58:02;36.92;;;14.48;;
43626;SDS011;29217;52.586;13.442;2023-12-07T14:00:28;43.65;;;15.40;;
43626;SDS011;29217;52.586;13.442;2023-12-07T14:02:54;37.92;;;15.05;;
43626;SDS011;29217;52.586;13.442;2023-12-07T14:05:20;44.13;;;15.80;;
43626;SDS011;29217;52.586;13.442;2023-12-07T14:07:47;44.22;;;15.10;;
43626;SDS011;29217;52.586;13.442;2023-12-07T14:10:14;42.05;;;15.02;;
43626;SDS011;29217;52.586;13.442;2023-12-07T14:12:40;42.25;;;15.60;;
43626;SDS011;29217;52.586;13.442;2023-12-07T14:15:06;37.75;;;14.18;;